Time;durP1;ratioP1;P1;durP2;ratioP2;P2;SDS_P1;SDS_P2;PMS_P1;PMS_P2;Temp;Humidity;BMP_temperature;BMP_pressure;BME280_temperature;BME280_humidity;BME280_pressure;Samples;Min_cycle;Max_cycle;Signal;HPM_P1;HPM_P2
2022/08/22 00:01:34;;;;;;;14.27;5.50;;;19.00;99.90;;;;;;6339347;22;20300;-82
2022/08/22 00:04:15;;;;;;;12.05;5.15;;;18.90;99.90;;;;;;6339890;22;20041;-82
2022/08/22 00:07:15;;;;;;;6.13;5.20;;;18.80;99.90;;;;;;6340645;22;20085;-81
2022/08/22 00:10:03;;;;;;;7.57;5.10;;;18.80;99.90;;;;;;6286632;22;20315;-80
2022/08/22 00:12:57;;;;;;;8.48;5.30;;;18.70;99.90;;;;;;6344879;22;20245;-81
2022/08/22 00:15:30;;;;;;;12.48;6.00;;;18.70;99.90;;;;;;6343991;22;20067;-81
2022/08/22 00:18:09;;;;;;;10.48;5.18;;;18.60;99.90;;;;;;6316859;22;20066;-81
2022/08/22 00:20:45;;;;;;;8.48;5.15;;;18.60;99.90;;;;;;6343107;22;20003;-81
2022/08/22 00:23:21;;;;;;;8.90;5.32;;;18.60;99.90;;;;;;6346975;22;20072;-81
2022/08/22 00:25:53;;;;;;;10.98;6.43;;;18.60;99.90;;;;;;6364683;22;20029;-80
2022/08/22 00:28:28;;;;;;;7.00;5.30;;;18.70;99.90;;;;;;6365995;22;20003;-80
2022/08/22 00:31:01;;;;;;;14.90;5.68;;;18.70;99.90;;;;;;6366782;22;20025;-80
2022/08/22 00:33:51;;;;;;;6.85;5.55;;;18.60;99.90;;;;;;6367040;22;20002;-80
2022/08/22 00:36:42;;;;;;;7.57;5.47;;;18.60;99.90;;;;;;6365754;22;20007;-80
2022/08/22 00:39:33;;;;;;;7.72;5.40;;;18.70;99.90;;;;;;6364486;22;20002;-81
2022/08/22 00:42:07;;;;;;;6.38;5.68;;;18.70;99.90;;;;;;6357462;22;20003;-81
2022/08/22 00:44:54;;;;;;;8.57;5.05;;;18.70;99.90;;;;;;6352164;22;20039;-81
2022/08/22 00:47:38;;;;;;;9.27;6.13;;;18.60;99.90;;;;;;6353599;22;20074;-81
2022/08/22 00:50:28;;;;;;;12.23;5.85;;;18.60;99.90;;;;;;6340068;22;19999;-82
2022/08/22 00:53:11;;;;;;;11.30;5.15;;;18.60;99.90;;;;;;6339743;22;20015;-82
2022/08/22 00:55:52;;;;;;;7.70;4.88;;;18.60;99.90;;;;;;6339490;22;20005;-82
2022/08/22 00:58:44;;;;;;;11.93;5.35;;;18.60;99.90;;;;;;6338851;22;20083;-82
2022/08/22 01:01:12;;;;;;;6.68;4.13;;;18.70;99.90;;;;;;6338627;22;20094;-81
2022/08/22 01:03:47;;;;;;;6.30;3.75;;;18.60;99.90;;;;;;6339992;22;20003;-82
2022/08/22 01:06:44;;;;;;;13.95;4.45;;;18.70;99.90;;;;;;6340253;22;20045;-82
2022/08/22 01:09:16;;;;;;;7.25;4.10;;;18.70;99.90;;;;;;6345254;22;20030;-81
2022/08/22 01:11:56;;;;;;;6.47;4.30;;;18.60;99.90;;;;;;6345328;22;20369;-81
2022/08/22 01:14:25;;;;;;;;;;;18.60;99.90;;;;;;6349999;22;20007;-81
2022/08/22 01:17:12;;;;;;;7.40;3.17;;;18.60;99.90;;;;;;6345352;22;20318;-82
2022/08/22 01:20:16;;;;;;;6.75;3.40;;;18.60;99.90;;;;;;6344611;22;20010;-81
2022/08/22 01:22:47;;;;;;;16.63;3.95;;;18.60;99.90;;;;;;6220083;23;20004;-82
2022/08/22 01:25:19;;;;;;;9.93;4.38;;;18.60;99.90;;;;;;6324943;22;20061;-82
2022/08/22 01:28:21;;;;;;;5.65;3.00;;;18.50;99.90;;;;;;6346194;22;19999;-81
2022/08/22 01:31:09;;;;;;;5.25;3.58;;;18.10;99.90;;;;;;6343852;22;20408;-81
2022/08/22 01:34:12;;;;;;;7.28;3.80;;;18.50;99.90;;;;;;6345532;22;19995;-82
2022/08/22 01:36:54;;;;;;;7.45;3.00;;;18.50;99.90;;;;;;6350606;22;20040;-81
2022/08/22 01:39:39;;;;;;;6.80;3.47;;;18.50;99.90;;;;;;6356093;22;20013;-82
2022/08/22 01:42:09;;;;;;;12.50;4.40;;;18.40;99.90;;;;;;6355541;22;20015;-82
2022/08/22 01:45:03;;;;;;;8.80;3.60;;;18.50;99.90;;;;;;6353250;22;19999;-81
2022/08/22 01:47:47;;;;;;;8.07;3.30;;;18.50;99.90;;;;;;6328515;22;20030;-82
2022/08/22 01:50:24;;;;;;;3.45;3.13;;;18.50;99.90;;;;;;6354772;22;20081;-82
2022/08/22 01:53:13;;;;;;;12.40;5.15;;;18.50;99.90;;;;;;6354774;22;19991;-82
2022/08/22 01:56:12;;;;;;;8.43;3.15;;;18.50;99.90;;;;;;6355226;22;19983;-81
2022/08/22 01:58:54;;;;;;;10.23;3.33;;;18.50;99.90;;;;;;6353246;22;19979;-81
2022/08/22 02:01:34;;;;;;;5.65;2.88;;;18.40;99.90;;;;;;6355738;22;20016;-81
2022/08/22 02:04:17;;;;;;;;;;;18.50;99.90;;;;;;6350402;22;20153;-80
2022/08/22 02:07:05;;;;;;;6.03;2.90;;;18.40;99.90;;;;;;6345785;22;20287;-82
2022/08/22 02:09:37;;;;;;;4.93;3.03;;;18.40;99.90;;;;;;6342197;22;20010;-81
2022/08/22 02:12:41;;;;;;;9.50;3.40;;;18.50;99.90;;;;;;6340833;22;19999;-81
2022/08/22 02:15:19;;;;;;;5.13;2.65;;;18.40;99.90;;;;;;6343437;22;20002;-81
2022/08/22 02:18:05;;;;;;;7.38;3.70;;;18.40;99.90;;;;;;6342401;22;20010;-81
2022/08/22 02:20:42;;;;;;;6.05;3.13;;;18.40;99.90;;;;;;6340557;22;20034;-81
2022/08/22 02:23:37;;;;;;;7.13;3.58;;;18.40;99.90;;;;;;6341534;22;20007;-81
2022/08/22 02:26:11;;;;;;;5.07;3.30;;;18.40;99.90;;;;;;6341498;22;20003;-82
2022/08/22 02:28:57;;;;;;;11.30;3.90;;;18.40;99.90;;;;;;6332212;22;20006;-81
2022/08/22 02:31:35;;;;;;;8.48;3.78;;;18.40;99.90;;;;;;6340358;22;20007;-81
2022/08/22 02:34:18;;;;;;;8.13;3.30;;;18.40;99.90;;;;;;6342212;22;20006;-81
2022/08/22 02:37:13;;;;;;;7.75;3.92;;;18.40;99.90;;;;;;6352412;22;20007;-82
2022/08/22 02:40:03;;;;;;;5.38;3.67;;;18.40;99.90;;;;;;6353025;22;20074;-82
2022/08/22 02:42:48;;;;;;;8.20;4.20;;;18.30;99.90;;;;;;6355342;22;20007;-82
2022/08/22 02:45:39;;;;;;;9.13;4.07;;;18.30;99.90;;;;;;6343019;22;20015;-82
2022/08/22 02:48:13;;;;;;;6.60;3.42;;;18.30;99.90;;;;;;6342055;22;20006;-81
2022/08/22 02:51:00;;;;;;;4.82;3.38;;;18.20;99.90;;;;;;6350965;22;20024;-81
2022/08/22 02:53:36;;;;;;;6.55;3.65;;;18.20;99.90;;;;;;6352583;22;20331;-81
2022/08/22 02:56:13;;;;;;;7.63;4.03;;;18.20;99.90;;;;;;6352110;22;20005;-82
2022/08/22 02:58:53;;;;;;;7.13;3.20;;;18.20;99.90;;;;;;6355415;22;20365;-81
2022/08/22 03:01:28;;;;;;;5.93;3.60;;;18.20;99.90;;;;;;6340094;22;20007;-82
2022/08/22 03:04:16;;;;;;;13.68;3.97;;;18.10;99.90;;;;;;6340204;22;20026;-82
2022/08/22 03:06:45;;;;;;;10.70;4.38;;;18.10;99.90;;;;;;6339189;22;20017;-81
2022/08/22 03:09:13;;;;;;;9.15;4.57;;;18.10;99.90;;;;;;6338961;22;20030;-82
2022/08/22 03:11:43;;;;;;;7.72;3.65;;;18.10;99.90;;;;;;6339928;22;19990;-82
2022/08/22 03:14:44;;;;;;;;;;;18.10;99.90;;;;;;6340290;22;20014;-81
2022/08/22 03:17:21;;;;;;;7.97;4.40;;;18.10;99.90;;;;;;6183111;23;19904;-81
2022/08/22 03:19:47;;;;;;;7.50;3.97;;;18.10;99.90;;;;;;6318436;22;20063;-81
2022/08/22 03:22:30;;;;;;;8.43;4.03;;;18.10;99.90;;;;;;6338759;22;20007;-81
2022/08/22 03:25:25;;;;;;;8.10;4.40;;;18.10;99.90;;;;;;6339306;22;20087;-81
2022/08/22 03:27:59;;;;;;;6.55;3.63;;;18.00;99.90;;;;;;6285724;22;20038;-82
2022/08/22 03:30:43;;;;;;;11.25;4.05;;;18.00;99.90;;;;;;6338509;22;19995;-82
2022/08/22 03:33:14;;;;;;;8.15;3.88;;;18.10;99.90;;;;;;6339895;22;20079;-81
2022/08/22 03:35:45;;;;;;;;;;;18.10;99.90;;;;;;6339018;22;20041;-81
2022/08/22 03:38:26;;;;;;;7.63;3.45;;;18.00;99.90;;;;;;6339305;22;19981;-81
2022/08/22 03:41:03;;;;;;;12.70;4.03;;;17.90;99.90;;;;;;6339442;22;20018;-81
2022/08/22 03:44:03;;;;;;;10.88;3.60;;;17.90;99.90;;;;;;6338630;22;20006;-81
2022/08/22 03:46:58;;;;;;;8.85;4.00;;;17.80;99.90;;;;;;6339964;22;20058;-81
2022/08/22 03:49:45;;;;;;;6.95;3.25;;;17.80;99.90;;;;;;6339269;22;20003;-81
2022/08/22 03:53:07;;;;;;;6.38;3.50;;;17.70;99.90;;;;;;6342865;22;20021;-81
2022/08/22 03:55:44;;;;;;;8.40;3.58;;;17.70;99.90;;;;;;6345445;22;20049;-81
2022/08/22 03:58:34;;;;;;;9.68;3.47;;;17.70;99.90;;;;;;6343799;22;20029;-81
2022/08/22 04:01:41;;;;;;;10.15;3.60;;;17.70;99.90;;;;;;6340310;22;20002;-82
2022/08/22 04:04:20;;;;;;;5.70;3.10;;;17.70;99.90;;;;;;6339347;22;20001;-81
2022/08/22 04:07:07;;;;;;;9.40;4.33;;;17.60;99.90;;;;;;6339746;22;20011;-82
2022/08/22 04:10:12;;;;;;;11.35;3.58;;;17.60;99.90;;;;;;6339559;22;20055;-81
2022/08/22 04:12:55;;;;;;;7.38;3.20;;;17.60;99.90;;;;;;6339285;22;20003;-81
2022/08/22 04:15:36;;;;;;;5.32;3.47;;;17.70;99.90;;;;;;6339260;22;20002;-80
2022/08/22 04:18:22;;;;;;;7.00;3.28;;;17.60;99.90;;;;;;6338639;22;19999;-81
2022/08/22 04:20:53;;;;;;;7.07;4.22;;;17.70;99.90;;;;;;6339317;22;20009;-80
2022/08/22 04:23:56;;;;;;;8.07;3.20;;;17.60;99.90;;;;;;6339984;22;20003;-81
2022/08/22 04:26:57;;;;;;;19.30;4.65;;;17.70;99.90;;;;;;6338033;22;20015;-81
2022/08/22 04:29:45;;;;;;;7.30;3.30;;;17.60;99.90;;;;;;6338839;22;20053;-82
2022/08/22 04:32:16;;;;;;;12.73;3.53;;;17.60;99.90;;;;;;6338062;22;20067;-81
2022/08/22 04:35:05;;;;;;;6.68;3.50;;;17.60;99.90;;;;;;6338836;22;20003;-81
2022/08/22 04:37:51;;;;;;;5.43;3.90;;;17.60;99.90;;;;;;6339098;22;20335;-81
2022/08/22 04:40:29;;;;;;;6.18;3.38;;;17.60;99.90;;;;;;6338205;22;20003;-82
2022/08/22 04:43:13;;;;;;;5.75;3.03;;;17.60;99.90;;;;;;6340375;22;20328;-81
2022/08/22 04:45:49;;;;;;;5.30;4.10;;;17.60;99.90;;;;;;6341224;22;20368;-81
2022/08/22 04:48:23;;;;;;;7.25;3.78;;;17.60;99.90;;;;;;6344320;22;20307;-81
2022/08/22 04:51:29;;;;;;;11.95;4.38;;;17.70;99.90;;;;;;6362720;22;20007;-81
2022/08/22 04:54:09;;;;;;;8.93;4.15;;;17.70;99.90;;;;;;6300804;22;20046;-80
2022/08/22 04:56:58;;;;;;;7.72;3.75;;;17.60;99.90;;;;;;6365854;22;20013;-81
2022/08/22 04:59:25;;;;;;;14.98;4.05;;;17.60;99.90;;;;;;6362868;22;20003;-80
2022/08/22 05:01:53;;;;;;;10.48;4.75;;;17.60;99.90;;;;;;6364634;22;20046;-80
2022/08/22 05:04:30;;;;;;;5.25;3.95;;;17.60;99.90;;;;;;6364136;22;20013;-81
2022/08/22 05:07:07;;;;;;;9.07;4.13;;;17.60;99.90;;;;;;6362771;22;20014;-80
2022/08/22 05:09:38;;;;;;;9.25;4.20;;;17.60;99.90;;;;;;6346611;22;19999;-81
2022/08/22 05:12:08;;;;;;;8.25;3.85;;;17.60;99.90;;;;;;6341702;22;20022;-80
2022/08/22 05:14:39;;;;;;;6.75;4.55;;;17.60;99.90;;;;;;6339857;22;19998;-80
2022/08/22 05:17:10;;;;;;;8.32;4.18;;;17.60;99.90;;;;;;6341608;22;20058;-80
2022/08/22 05:19:39;;;;;;;9.23;5.13;;;17.60;99.90;;;;;;6338361;22;20003;-79
2022/08/22 05:22:10;;;;;;;9.70;4.35;;;17.60;99.90;;;;;;6337243;22;20014;-79
2022/08/22 05:24:41;;;;;;;9.27;4.40;;;17.60;99.90;;;;;;6338494;22;20006;-79
2022/08/22 05:27:21;;;;;;;9.02;4.15;;;17.60;99.90;;;;;;6337583;22;20013;-79
2022/08/22 05:29:52;;;;;;;8.30;4.65;;;17.60;99.90;;;;;;6336797;22;20010;-79
2022/08/22 05:32:31;;;;;;;8.57;4.40;;;17.60;99.90;;;;;;6337049;22;20080;-79
2022/08/22 05:35:02;;;;;;;11.57;4.82;;;17.60;99.90;;;;;;6338359;22;20409;-80
2022/08/22 05:37:48;;;;;;;6.07;4.60;;;17.60;99.90;;;;;;6336919;22;20326;-79
2022/08/22 05:40:19;;;;;;;9.25;4.65;;;17.60;99.90;;;;;;6337649;22;20003;-79
2022/08/22 05:42:45;;;;;;;6.15;4.35;;;17.60;99.90;;;;;;6338101;22;20006;-79
2022/08/22 05:45:12;;;;;;;6.28;4.47;;;17.50;99.90;;;;;;6341913;22;20431;-80
2022/08/22 05:47:53;;;;;;;8.90;5.05;;;17.60;99.90;;;;;;6340794;22;20427;-80
2022/08/22 05:50:30;;;;;;;10.38;5.22;;;17.60;99.90;;;;;;6340377;22;20031;-80
2022/08/22 05:53:16;;;;;;;7.45;4.75;;;17.60;99.90;;;;;;6341298;22;20009;-80
2022/08/22 05:55:49;;;;;;;6.80;4.60;;;17.60;99.90;;;;;;6340899;22;20003;-79
2022/08/22 05:58:40;;;;;;;8.20;6.03;;;17.60;99.90;;;;;;6340215;22;19999;-79
2022/08/22 06:01:24;;;;;;;7.05;5.30;;;17.60;99.90;;;;;;6339609;22;20010;-79
2022/08/22 06:04:11;;;;;;;11.57;5.38;;;17.60;99.90;;;;;;6339748;22;20055;-79
2022/08/22 06:06:51;;;;;;;13.18;5.75;;;17.60;99.90;;;;;;6339848;22;20547;-80
2022/08/22 06:09:38;;;;;;;10.05;5.20;;;17.60;99.90;;;;;;6340816;22;20006;-80
2022/08/22 06:12:10;;;;;;;9.85;4.97;;;17.60;99.90;;;;;;6340114;22;20052;-79
2022/08/22 06:14:41;;;;;;;11.20;4.93;;;17.60;99.90;;;;;;6341355;22;20057;-79
2022/08/22 06:17:07;;;;;;;7.68;5.00;;;17.60;99.90;;;;;;6313315;22;20010;-80
2022/08/22 06:19:38;;;;;;;6.20;4.45;;;17.60;99.90;;;;;;6338983;22;20010;-80
2022/08/22 06:22:04;;;;;;;10.68;4.97;;;17.60;99.90;;;;;;6340614;22;20002;-80
2022/08/22 06:24:33;;;;;;;9.70;5.32;;;17.60;99.90;;;;;;6339286;22;20007;-80
2022/08/22 06:27:10;;;;;;;10.63;5.05;;;17.50;99.90;;;;;;6340386;22;20019;-80
2022/08/22 06:29:41;;;;;;;5.80;4.68;;;17.50;99.90;;;;;;6340413;22;19999;-80
2022/08/22 06:32:22;;;;;;;10.57;5.22;;;17.60;99.90;;;;;;6340011;22;20003;-79
2022/08/22 06:34:51;;;;;;;7.38;5.45;;;17.70;99.90;;;;;;6341227;22;19995;-79
2022/08/22 06:37:30;;;;;;;8.00;6.35;;;17.70;99.90;;;;;;6343346;22;20081;-79
2022/08/22 06:39:57;;;;;;;8.85;5.88;;;17.80;99.90;;;;;;6341821;22;20023;-79
2022/08/22 06:42:29;;;;;;;9.00;5.75;;;17.90;99.90;;;;;;6341508;22;20437;-79
2022/08/22 06:45:16;;;;;;;14.07;5.75;;;18.00;99.90;;;;;;6345937;22;20043;-81
2022/08/22 06:47:47;;;;;;;13.95;6.25;;;18.00;99.90;;;;;;6339280;22;20048;-81
2022/08/22 06:50:33;;;;;;;6.88;5.20;;;17.90;99.90;;;;;;6339808;22;20007;-78
2022/08/22 06:53:04;;;;;;;10.43;5.32;;;17.90;99.90;;;;;;6338951;22;20026;-79
2022/08/22 06:55:30;;;;;;;10.55;6.00;;;17.90;99.90;;;;;;6338735;22;20010;-82
2022/08/22 06:58:02;;;;;;;16.00;6.78;;;17.90;99.90;;;;;;6341293;22;20003;-80
2022/08/22 07:00:30;;;;;;;11.18;6.10;;;17.90;99.90;;;;;;6342480;22;20158;-80
2022/08/22 07:03:10;;;;;;;14.65;6.53;;;17.90;99.90;;;;;;6362931;22;19994;-81
2022/08/22 07:05:39;;;;;;;12.00;7.18;;;17.90;99.90;;;;;;6343636;22;20419;-81
2022/08/22 07:08:13;;;;;;;12.70;6.85;;;17.90;99.90;;;;;;6342386;22;20025;-81
2022/08/22 07:10:46;;;;;;;12.25;6.65;;;18.00;99.90;;;;;;6350467;22;20002;-80
2022/08/22 07:13:15;;;;;;;12.77;6.75;;;18.00;99.90;;;;;;6354229;22;20354;-80
2022/08/22 07:15:42;;;;;;;9.45;5.93;;;18.10;99.90;;;;;;6346873;22;20017;-81
2022/08/22 07:18:18;;;;;;;15.00;7.07;;;18.10;99.90;;;;;;6357402;22;20002;-79
2022/08/22 07:20:52;;;;;;;9.55;6.88;;;18.20;99.90;;;;;;6346048;22;20003;-77
2022/08/22 07:23:34;;;;;;;12.40;5.82;;;18.30;99.90;;;;;;6340372;22;20373;-80
2022/08/22 07:26:19;;;;;;;12.38;6.13;;;18.40;99.90;;;;;;6340013;22;20347;-80
2022/08/22 07:28:50;;;;;;;10.68;5.93;;;18.60;99.90;;;;;;6339394;22;20002;-77
2022/08/22 07:31:21;;;;;;;7.50;5.10;;;18.70;99.90;;;;;;6313507;22;20013;-81
2022/08/22 07:34:01;;;;;;;10.55;6.47;;;18.80;99.90;;;;;;6342529;22;20003;-80
2022/08/22 07:36:30;;;;;;;;;;;18.90;99.90;;;;;;6340440;22;20320;-80
2022/08/22 07:39:13;;;;;;;10.18;5.80;;;19.00;99.90;;;;;;6339541;22;19902;-80
2022/08/22 07:42:15;;;;;;;18.92;7.85;;;19.10;99.90;;;;;;6339116;22;20007;-80
2022/08/22 07:45:09;;;;;;;12.13;5.55;;;19.20;99.90;;;;;;6338717;22;20030;-81
2022/08/22 07:48:03;;;;;;;9.60;5.35;;;19.30;99.90;;;;;;6339138;22;20048;-80
2022/08/22 07:50:33;;;;;;;13.35;5.55;;;19.40;99.90;;;;;;6338190;22;19999;-80
2022/08/22 07:53:27;;;;;;;8.55;5.13;;;19.60;99.90;;;;;;6339397;22;20079;-80
2022/08/22 07:55:55;;;;;;;11.32;6.07;;;19.60;99.90;;;;;;6315563;22;20327;-80
2022/08/22 07:58:24;;;;;;;10.27;5.13;;;19.80;99.90;;;;;;6338136;22;20451;-79
2022/08/22 08:00:50;;;;;;;10.57;5.63;;;19.80;99.90;;;;;;6338915;22;20005;-75
2022/08/22 08:03:19;;;;;;;9.20;4.90;;;19.90;99.90;;;;;;6337284;22;19995;-77
2022/08/22 08:05:45;;;;;;;9.57;6.22;;;20.00;99.90;;;;;;6339802;22;20010;-80
2022/08/22 08:08:22;;;;;;;13.25;5.60;;;20.00;99.90;;;;;;6339368;22;20015;-77
2022/08/22 08:10:50;;;;;;;13.45;6.00;;;20.10;99.90;;;;;;6338039;22;20319;-75
2022/08/22 08:13:28;;;;;;;11.27;5.65;;;20.20;99.90;;;;;;6339071;22;20006;-77
2022/08/22 08:15:54;;;;;;;11.80;5.63;;;20.30;99.90;;;;;;6338973;22;19998;-76
2022/08/22 08:18:23;;;;;;;13.77;5.63;;;20.30;99.90;;;;;;6338078;22;20353;-79
2022/08/22 08:20:53;;;;;;;9.85;5.25;;;20.40;99.90;;;;;;6340212;22;20018;-77
2022/08/22 08:23:20;;;;;;;6.87;4.40;;;20.50;99.90;;;;;;6338599;22;20007;-78
2022/08/22 08:26:20;;;;;;;12.80;6.25;;;20.60;99.90;;;;;;6337416;22;20098;-80
2022/08/22 08:28:51;;;;;;;7.43;4.78;;;20.70;99.90;;;;;;6338760;22;20002;-79
2022/08/22 08:31:36;;;;;;;8.15;5.47;;;20.70;99.90;;;;;;6337430;22;20005;-83
2022/08/22 08:34:13;;;;;;;7.70;4.43;;;20.70;99.90;;;;;;6339231;22;20010;-78
2022/08/22 08:36:55;;;;;;;7.47;5.15;;;20.60;99.90;;;;;;6337976;22;20009;-79
2022/08/22 08:39:42;;;;;;;5.40;4.43;;;20.50;99.90;;;;;;6337319;22;19999;-80
2022/08/22 08:42:30;;;;;;;6.30;4.20;;;20.50;99.90;;;;;;6338497;22;20003;-81
2022/08/22 08:45:10;;;;;;;8.25;4.18;;;20.50;99.90;;;;;;6330747;22;20075;-78
2022/08/22 08:47:54;;;;;;;;;;;20.40;99.90;;;;;;6334828;22;19999;-78
2022/08/22 08:50:28;;;;;;;13.73;5.85;;;20.40;99.90;;;;;;6334315;22;19898;-78
2022/08/22 08:53:08;;;;;;;12.15;5.20;;;20.40;99.90;;;;;;6334620;22;19999;-78
2022/08/22 08:55:43;;;;;;;;;;;20.40;99.90;;;;;;6334851;22;20148;-78
2022/08/22 08:58:27;;;;;;;9.23;6.47;;;20.40;99.90;;;;;;6335247;22;19899;-78
2022/08/22 09:01:21;;;;;;;8.73;5.20;;;20.40;99.90;;;;;;6334902;22;20450;-79
2022/08/22 09:04:08;;;;;;;8.38;5.50;;;20.50;99.90;;;;;;6337565;22;20011;-78
2022/08/22 09:07:00;;;;;;;11.13;6.50;;;20.50;99.90;;;;;;6336898;22;20022;-78
2022/08/22 09:10:08;;;;;;;8.75;5.30;;;20.50;99.90;;;;;;6337308;22;20324;-77
2022/08/22 09:12:55;;;;;;;7.05;5.03;;;20.50;99.90;;;;;;6340447;22;20010;-78
2022/08/22 09:15:23;;;;;;;5.63;5.05;;;20.40;99.90;;;;;;6341676;22;20007;-77
2022/08/22 09:18:05;;;;;;;11.02;6.13;;;20.50;99.90;;;;;;6337854;22;20292;-77
2022/08/22 09:21:01;;;;;;;9.18;6.22;;;20.70;99.90;;;;;;6337119;22;20063;-78
2022/08/22 09:24:04;;;;;;;10.52;7.05;;;20.80;99.90;;;;;;6339297;22;20300;-78
2022/08/22 09:26:38;;;;;;;12.77;6.70;;;21.00;99.90;;;;;;6338141;22;20014;-78
2022/08/22 09:29:38;;;;;;;8.88;5.50;;;21.10;99.90;;;;;;6341064;22;19999;-77
2022/08/22 09:32:41;;;;;;;13.17;6.73;;;21.30;99.90;;;;;;6338896;22;19999;-79
2022/08/22 09:35:32;;;;;;;12.20;5.70;;;21.40;99.90;;;;;;6338449;22;20079;-78
2022/08/22 09:38:40;;;;;;;14.40;5.47;;;21.50;99.90;;;;;;6321244;22;20358;-78
2022/08/22 09:41:23;;;;;;;6.05;3.60;;;21.60;99.90;;;;;;6339279;22;20358;-78
2022/08/22 09:44:15;;;;;;;6.82;3.90;;;21.70;99.90;;;;;;6357005;22;20032;-78
2022/08/22 09:46:55;;;;;;;8.48;4.00;;;21.80;99.90;;;;;;6297505;22;20038;-78
2022/08/22 09:49:43;;;;;;;6.85;3.95;;;21.90;99.90;;;;;;6356840;22;19998;-78
2022/08/22 09:52:26;;;;;;;8.18;3.85;;;22.00;99.90;;;;;;6358447;22;20002;-79
2022/08/22 09:55:30;;;;;;;12.07;3.83;;;22.10;99.90;;;;;;6362265;22;20006;-78
2022/08/22 09:58:06;;;;;;;9.00;4.43;;;22.20;99.90;;;;;;6351719;22;20054;-78
2022/08/22 10:00:58;;;;;;;15.15;4.00;;;22.30;99.90;;;;;;6339274;22;19999;-80
2022/08/22 10:03:45;;;;;;;20.90;5.28;;;22.40;99.90;;;;;;6339219;22;20014;-78
2022/08/22 10:06:19;;;;;;;9.73;3.95;;;22.50;99.90;;;;;;6338352;22;20018;-81
2022/08/22 10:09:05;;;;;;;8.43;4.03;;;22.60;99.90;;;;;;6338964;22;19999;-80
2022/08/22 10:11:45;;;;;;;7.30;5.05;;;22.60;99.90;;;;;;6337381;22;20029;-80
2022/08/22 10:14:43;;;;;;;11.35;4.28;;;22.70;99.90;;;;;;6338368;22;20002;-81
2022/08/22 10:17:19;;;;;;;13.25;4.65;;;22.80;99.90;;;;;;6337394;22;20007;-83
2022/08/22 10:19:50;;;;;;;8.25;4.32;;;22.80;99.90;;;;;;6339128;22;20323;-85
2022/08/22 10:22:39;;;;;;;8.02;4.18;;;22.80;99.90;;;;;;6338849;22;20010;-84
2022/08/22 10:25:37;;;;;;;8.93;5.05;;;22.80;99.90;;;;;;6337512;22;20453;-84
2022/08/22 10:28:15;;;;;;;14.80;6.05;;;22.80;99.90;;;;;;6339129;22;20010;-86
2022/08/22 10:30:44;;;;;;;10.68;3.70;;;22.90;99.90;;;;;;6338776;22;20482;-85
2022/08/22 10:33:40;;;;;;;6.35;3.92;;;23.00;99.90;;;;;;6339194;22;20331;-86
2022/08/22 10:36:11;;;;;;;7.97;4.15;;;23.10;99.90;;;;;;6340786;22;19998;-85
2022/08/22 10:38:51;;;;;;;10.10;5.07;;;23.00;99.90;;;;;;6340050;22;20003;-85
2022/08/22 10:41:27;;;;;;;13.50;4.75;;;23.00;99.90;;;;;;6340729;22;20007;-84
2022/08/22 10:44:20;;;;;;;6.57;4.32;;;23.00;99.90;;;;;;6341133;22;20003;-84
2022/08/22 10:47:03;;;;;;;9.82;5.60;;;23.00;99.90;;;;;;6343118;22;20007;-85
2022/08/22 10:49:37;;;;;;;9.38;4.47;;;23.00;99.90;;;;;;6340677;22;20401;-85
2022/08/22 10:52:44;;;;;;;6.28;4.15;;;23.10;99.90;;;;;;6338880;22;20353;-81
2022/08/22 10:55:19;;;;;;;9.02;4.68;;;23.10;99.90;;;;;;6213372;23;20433;-80
2022/08/22 10:57:48;;;;;;;6.90;3.85;;;23.20;99.90;;;;;;6326520;22;20010;-81
2022/08/22 11:00:25;;;;;;;8.32;5.10;;;23.30;99.90;;;;;;6338701;22;20014;-81
2022/08/22 11:03:01;;;;;;;9.77;4.28;;;23.30;99.90;;;;;;6339803;22;20007;-81
2022/08/22 11:05:36;;;;;;;8.45;3.92;;;23.40;99.90;;;;;;6339366;22;20011;-82
2022/08/22 11:08:29;;;;;;;6.57;3.90;;;23.50;99.90;;;;;;6339139;22;20026;-81
2022/08/22 11:11:18;;;;;;;7.50;4.25;;;23.60;99.90;;;;;;6341245;22;20318;-82
2022/08/22 11:13:55;;;;;;;9.98;5.45;;;23.80;99.90;;;;;;6346891;22;20038;-80
2022/08/22 11:16:58;;;;;;;9.18;4.05;;;23.80;99.90;;;;;;6339417;22;20325;-81
2022/08/22 11:19:48;;;;;;;6.35;3.90;;;23.80;99.90;;;;;;6338922;22;20319;-80
2022/08/22 11:22:26;;;;;;;10.40;3.95;;;23.80;99.90;;;;;;6338546;22;20430;-80
2022/08/22 11:25:16;;;;;;;14.90;4.75;;;23.90;99.90;;;;;;6355520;22;20034;-77
2022/08/22 11:28:23;;;;;;;10.70;4.43;;;23.90;99.90;;;;;;6337368;22;20056;-81
2022/08/22 11:30:59;;;;;;;13.95;4.57;;;23.90;99.90;;;;;;6337555;22;20496;-81
2022/08/22 11:33:55;;;;;;;10.65;4.53;;;23.90;99.90;;;;;;6338085;22;20082;-79
2022/08/22 11:36:38;;;;;;;7.60;4.80;;;23.90;99.90;;;;;;6346036;22;20377;-81
2022/08/22 11:39:23;;;;;;;8.55;3.53;;;24.00;99.90;;;;;;6327755;22;20009;-80
2022/08/22 11:42:07;;;;;;;9.25;3.80;;;24.00;99.90;;;;;;6345984;22;20006;-80
2022/08/22 11:45:05;;;;;;;6.85;3.15;;;24.20;99.90;;;;;;6349087;22;20057;-81
2022/08/22 11:47:43;;;;;;;9.80;3.47;;;24.30;99.90;;;;;;6318313;22;20007;-80
2022/08/22 11:50:12;;;;;;;8.38;4.47;;;24.40;99.90;;;;;;6343778;22;20003;-80
2022/08/22 11:52:43;;;;;;;6.40;3.25;;;24.40;98.80;;;;;;6340768;22;20003;-80
2022/08/22 11:55:22;;;;;;;7.90;3.05;;;24.50;99.40;;;;;;6338110;22;20010;-81
2022/08/22 11:58:01;;;;;;;6.28;3.40;;;24.60;99.90;;;;;;6340359;22;20006;-81
2022/08/22 12:00:51;;;;;;;5.20;2.60;;;24.80;99.50;;;;;;6337586;22;20029;-78
2022/08/22 12:03:41;;;;;;;9.00;3.65;;;24.90;99.00;;;;;;6336586;22;20003;-78
2022/08/22 12:06:44;;;;;;;6.68;3.30;;;25.00;98.20;;;;;;6336459;22;20387;-79
2022/08/22 12:09:28;;;;;;;9.55;3.55;;;25.00;98.10;;;;;;6335352;22;20099;-78
2022/08/22 12:11:59;;;;;;;10.80;3.72;;;25.10;97.80;;;;;;6338264;22;20416;-78
2022/08/22 12:14:40;;;;;;;9.32;3.65;;;25.20;97.80;;;;;;6338528;22;20009;-79
2022/08/22 12:17:17;;;;;;;9.70;3.58;;;25.20;97.90;;;;;;6337980;22;19999;-78
2022/08/22 12:20:00;;;;;;;5.72;3.00;;;25.00;97.70;;;;;;6338640;22;20007;-79
2022/08/22 12:22:54;;;;;;;10.20;3.92;;;24.80;97.90;;;;;;6338384;22;20078;-80
2022/08/22 12:25:49;;;;;;;7.45;3.55;;;24.70;97.50;;;;;;6336618;22;20508;-78
2022/08/22 12:28:38;;;;;;;6.72;3.50;;;24.80;97.30;;;;;;6337814;22;20427;-78
2022/08/22 12:31:22;;;;;;;9.48;3.85;;;24.90;97.80;;;;;;6337599;22;20002;-78
2022/08/22 12:34:02;;;;;;;9.57;3.55;;;25.10;97.30;;;;;;6337125;22;19998;-80
2022/08/22 12:36:49;;;;;;;8.90;4.10;;;25.20;96.90;;;;;;6337793;22;20707;-80
2022/08/22 12:39:31;;;;;;;4.68;3.00;;;25.30;96.50;;;;;;6337816;22;20066;-79
2022/08/22 12:42:14;;;;;;;5.75;2.55;;;25.50;96.30;;;;;;6337449;22;20003;-79
2022/08/22 12:45:06;;;;;;;9.40;2.95;;;25.70;95.90;;;;;;6337097;22;20002;-79
2022/08/22 12:47:40;;;;;;;10.27;3.58;;;25.90;95.30;;;;;;6288297;22;20361;-79
2022/08/22 12:50:43;;;;;;;7.00;2.95;;;25.90;94.90;;;;;;6335899;22;20746;-78
2022/08/22 12:53:22;;;;;;;8.13;2.97;;;26.20;94.00;;;;;;6334250;22;19999;-79
2022/08/22 12:56:15;;;;;;;4.60;2.15;;;26.30;94.00;;;;;;6336903;22;20001;-80
2022/08/22 12:59:15;;;;;;;4.78;2.80;;;26.30;94.10;;;;;;6334801;22;20007;-80
2022/08/22 13:01:48;;;;;;;7.07;2.60;;;26.40;93.90;;;;;;6335375;22;19998;-80
2022/08/22 13:04:18;;;;;;;8.18;3.13;;;26.50;93.90;;;;;;6334428;22;20011;-81
2022/08/22 13:06:50;;;;;;;9.18;2.50;;;26.50;93.50;;;;;;6334329;22;20072;-80
2022/08/22 13:09:32;;;;;;;5.38;1.85;;;26.50;93.10;;;;;;6333135;22;20006;-80
2022/08/22 13:12:04;;;;;;;3.13;2.10;;;26.40;93.70;;;;;;6329602;22;20006;-79
2022/08/22 13:14:32;;;;;;;5.25;2.55;;;26.50;93.30;;;;;;6333317;22;19999;-77
2022/08/22 13:17:04;;;;;;;5.68;2.35;;;26.50;93.00;;;;;;6336485;22;19999;-80
2022/08/22 13:19:34;;;;;;;9.65;3.00;;;26.50;93.20;;;;;;6334515;22;20014;-81
2022/08/22 13:22:05;;;;;;;6.35;2.65;;;26.60;93.30;;;;;;6335174;22;20010;-79
2022/08/22 13:24:46;;;;;;;6.20;2.53;;;26.70;93.20;;;;;;6335359;22;20007;-80
2022/08/22 13:27:35;;;;;;;6.68;2.78;;;26.90;93.40;;;;;;6333901;22;20397;-78
2022/08/22 13:30:07;;;;;;;7.10;2.60;;;27.00;93.10;;;;;;6335207;22;20002;-79
2022/08/22 13:32:33;;;;;;;11.07;3.00;;;27.00;92.70;;;;;;6334592;22;20024;-79
2022/08/22 13:35:00;;;;;;;5.65;2.95;;;27.20;92.60;;;;;;6346394;22;20025;-79
2022/08/22 13:37:39;;;;;;;11.30;2.90;;;27.30;92.80;;;;;;6346994;22;20005;-80
2022/08/22 13:40:12;;;;;;;6.60;1.98;;;27.30;91.90;;;;;;6337216;22;20394;-79
2022/08/22 13:42:47;;;;;;;5.70;2.35;;;27.10;92.30;;;;;;6336423;22;20045;-79
2022/08/22 13:45:24;;;;;;;3.80;2.05;;;27.20;92.20;;;;;;6334975;22;20003;-78
2022/08/22 13:47:58;;;;;;;5.85;2.33;;;27.40;92.50;;;;;;6343974;22;20068;-79
2022/08/22 13:50:31;;;;;;;4.10;2.33;;;27.50;92.30;;;;;;6337878;22;20014;-79
2022/08/22 13:53:28;;;;;;;7.72;2.88;;;27.70;91.80;;;;;;6348239;22;20034;-80
2022/08/22 13:56:02;;;;;;;5.13;2.65;;;27.80;91.60;;;;;;6334858;22;20003;-80
2022/08/22 13:58:37;;;;;;;8.77;2.50;;;27.80;91.80;;;;;;6333673;22;20010;-80